Time;durP1;ratioP1;P1;durP2;ratioP2;P2;SDS_P1;SDS_P2;PMS_P1;PMS_P2;Temp;Humidity;BMP_temperature;BMP_pressure;BME280_temperature;BME280_humidity;BME280_pressure;Samples;Min_cycle;Max_cycle;Signal;HPM_P1;HPM_P2
2023/12/12 00:01:22;;;;;;;2.80;0.70;;;;;;;3.49;100.00;95507.81;108029;1276;22573;-80
2023/12/12 00:03:51;;;;;;;1.70;1.40;;;;;;;3.44;100.00;95505.40;107997;1276;26424;-80
2023/12/12 00:06:20;;;;;;;2.00;1.50;;;;;;;3.42;100.00;95505.98;107985;1281;22552;-80
2023/12/12 00:08:48;;;;;;;2.80;1.40;;;;;;;3.37;100.00;95502.19;108000;1281;22525;-80
2023/12/12 00:11:17;;;;;;;2.00;1.00;;;;;;;3.36;100.00;95501.70;107906;1281;22536;-80
2023/12/12 00:13:45;;;;;;;0.90;0.90;;;;;;;3.35;100.00;95496.63;108040;1281;22545;-81
2023/12/12 00:16:16;;;;;;;1.50;1.20;;;;;;;3.33;100.00;95494.06;107982;1276;24281;-80
2023/12/12 00:18:44;;;;;;;3.10;1.30;;;;;;;3.34;100.00;95489.61;108044;1276;22557;-81
2023/12/12 00:21:14;;;;;;;1.60;1.20;;;;;;;3.34;100.00;95491.44;107997;1281;25314;-81
2023/12/12 00:23:42;;;;;;;0.90;0.80;;;;;;;3.35;100.00;95485.31;108055;1281;25478;-80
2023/12/12 00:26:12;;;;;;;1.90;1.10;;;;;;;3.39;100.00;95483.24;107993;1273;22554;-80
2023/12/12 00:28:41;;;;;;;2.20;1.10;;;;;;;3.40;100.00;95483.77;108026;1275;22535;-80
2023/12/12 00:31:09;;;;;;;1.80;0.90;;;;;;;3.44;100.00;95476.42;108007;1281;23300;-80
2023/12/12 00:33:37;;;;;;;2.00;1.20;;;;;;;3.45;100.00;95480.52;108020;1277;22663;-81
2023/12/12 00:36:08;;;;;;;3.20;1.80;;;;;;;3.45;100.00;95475.43;107931;1281;24252;-81
2023/12/12 00:38:36;;;;;;;4.60;1.60;;;;;;;3.41;100.00;95477.63;108031;1276;23070;-81
2023/12/12 00:41:08;;;;;;;3.10;1.10;;;;;;;3.36;100.00;95487.46;108000;1274;24250;-80
2023/12/12 00:43:36;;;;;;;2.30;1.10;;;;;;;3.35;100.00;95490.65;107996;1281;23156;-80
2023/12/12 00:46:05;;;;;;;3.50;1.90;;;;;;;3.33;100.00;95494.32;107984;1274;22696;-81
2023/12/12 00:48:34;;;;;;;3.30;2.10;;;;;;;3.26;100.00;95495.21;108022;1275;22626;-81
2023/12/12 00:51:02;;;;;;;2.60;2.00;;;;;;;3.21;100.00;95496.02;108001;1281;22536;-81
2023/12/12 00:53:30;;;;;;;2.50;1.90;;;;;;;3.21;100.00;95496.17;107994;1275;22706;-81
2023/12/12 00:55:58;;;;;;;3.30;2.30;;;;;;;3.21;100.00;95498.63;107943;1277;25370;-81
2023/12/12 00:58:27;;;;;;;3.30;2.40;;;;;;;3.22;100.00;95500.16;107977;1276;22537;-81
2023/12/12 01:00:57;;;;;;;2.40;1.90;;;;;;;3.18;100.00;95508.75;107978;1281;24251;-81
2023/12/12 01:03:25;;;;;;;3.40;1.90;;;;;;;3.17;100.00;95510.21;108008;1281;22644;-81
2023/12/12 01:05:54;;;;;;;2.60;2.10;;;;;;;3.17;100.00;95513.41;107935;1281;22574;-81
2023/12/12 01:08:27;;;;;;;3.00;2.30;;;;;;;3.17;100.00;95517.86;107995;1281;23357;-81
2023/12/12 01:10:57;;;;;;;3.00;2.40;;;;;;;3.21;100.00;95514.73;108036;1275;22533;-81
2023/12/12 01:13:28;;;;;;;2.80;1.90;;;;;;;3.26;100.00;95518.84;107975;1280;23403;-81
2023/12/12 01:15:56;;;;;;;3.40;2.30;;;;;;;3.30;100.00;95519.52;107929;1281;22543;-81
2023/12/12 01:18:26;;;;;;;3.20;2.60;;;;;;;3.33;100.00;95519.05;107954;1281;22555;-81
2023/12/12 01:20:55;;;;;;;3.30;2.20;;;;;;;3.34;100.00;95518.69;107976;1281;22537;-81
2023/12/12 01:23:23;;;;;;;4.30;1.90;;;;;;;3.35;100.00;95509.41;108005;1281;22552;-81
2023/12/12 01:25:51;;;;;;;2.90;2.40;;;;;;;3.35;100.00;95515.85;107931;1281;22553;-81
2023/12/12 01:28:20;;;;;;;3.60;2.30;;;;;;;3.38;100.00;95519.48;107974;1275;22533;-81
2023/12/12 01:30:52;;;;;;;2.90;2.30;;;;;;;3.42;100.00;95527.52;107989;1281;25355;-81
2023/12/12 01:33:21;;;;;;;3.30;2.20;;;;;;;3.49;100.00;95524.48;108071;1275;22572;-81
2023/12/12 01:35:52;;;;;;;3.40;2.30;;;;;;;3.54;100.00;95522.04;107941;1277;22548;-81
2023/12/12 01:38:20;;;;;;;1.90;1.30;;;;;;;3.66;100.00;95526.55;107965;1273;24553;-81
2023/12/12 01:40:51;;;;;;;2.70;1.30;;;;;;;3.73;100.00;95523.41;107983;1279;25400;-81
2023/12/12 01:43:27;;;;;;;2.60;1.80;;;;;;;3.86;100.00;95527.67;107990;1281;22594;-81
2023/12/12 01:45:58;;;;;;;2.00;1.30;;;;;;;3.95;100.00;95527.21;107931;1281;24249;-81
2023/12/12 01:48:28;;;;;;;2.70;1.60;;;;;;;4.03;100.00;95522.36;107984;1275;25270;-81
2023/12/12 01:50:55;;;;;;;;;;;;;;;4.09;100.00;95524.95;108005;1280;22518;-81
2023/12/12 01:53:28;;;;;;;2.00;1.20;;;;;;;4.13;100.00;95536.44;107976;1281;22576;-81
2023/12/12 01:55:57;;;;;;;2.20;1.50;;;;;;;4.21;100.00;95536.61;107973;1281;22557;-81
2023/12/12 01:58:29;;;;;;;1.90;1.70;;;;;;;4.23;100.00;95540.09;107997;1281;22530;-81
2023/12/12 02:00:57;;;;;;;2.30;1.40;;;;;;;4.25;100.00;95544.20;108006;1281;22546;-80
2023/12/12 02:03:28;;;;;;;3.00;1.70;;;;;;;4.27;100.00;95537.73;107985;1275;22509;-81
2023/12/12 02:05:58;;;;;;;3.00;1.90;;;;;;;4.29;100.00;95543.86;107960;1281;22537;-81
2023/12/12 02:08:26;;;;;;;3.30;1.80;;;;;;;4.31;100.00;95545.16;107994;1274;25313;-81
2023/12/12 02:10:57;;;;;;;2.50;1.50;;;;;;;4.29;100.00;95540.24;108016;1277;22489;-81
2023/12/12 02:13:25;;;;;;;5.40;2.40;;;;;;;4.27;100.00;95539.73;108002;1281;22536;-81
2023/12/12 02:15:54;;;;;;;4.40;2.20;;;;;;;4.29;100.00;95543.61;107953;1281;22558;-81
2023/12/12 02:18:22;;;;;;;2.50;1.30;;;;;;;4.31;99.95;95535.93;107951;1281;22574;-81
2023/12/12 02:20:51;;;;;;;3.70;2.00;;;;;;;4.37;99.84;95544.97;108017;1281;22563;-81
2023/12/12 02:23:19;;;;;;;2.60;1.90;;;;;;;4.32;99.51;95548.27;107979;1274;22516;-80
2023/12/12 02:25:48;;;;;;;4.40;2.00;;;;;;;4.26;99.41;95551.69;107946;1281;24413;-81
2023/12/12 02:28:17;;;;;;;3.60;2.50;;;;;;;4.20;99.36;95550.27;107930;1281;22533;-81
2023/12/12 02:30:45;;;;;;;4.00;2.80;;;;;;;4.15;99.23;95559.72;108040;1259;22540;-80
2023/12/12 02:33:17;;;;;;;4.00;2.60;;;;;;;4.09;99.19;95557.10;107998;1281;22653;-81
2023/12/12 02:35:45;;;;;;;5.50;2.20;;;;;;;4.05;99.14;95556.20;107971;1281;23332;-80
2023/12/12 02:38:16;;;;;;;4.30;2.80;;;;;;;4.02;99.28;95559.50;107994;1281;22726;-80
2023/12/12 02:40:44;;;;;;;5.30;2.50;;;;;;;3.99;99.11;95555.31;107968;1281;22589;-81
2023/12/12 02:43:12;;;;;;;4.90;3.20;;;;;;;4.01;99.26;95567.05;107998;1281;22567;-81
2023/12/12 02:45:41;;;;;;;4.60;2.40;;;;;;;4.01;99.35;95570.10;107973;1279;24345;-81
2023/12/12 02:48:09;;;;;;;3.60;2.50;;;;;;;3.98;99.05;95570.84;107977;1281;21865;-80
2023/12/12 02:50:37;;;;;;;6.40;3.20;;;;;;;3.97;99.19;95576.81;107990;1281;22547;-80
2023/12/12 02:53:06;;;;;;;4.50;2.50;;;;;;;3.96;99.12;95574.61;107971;1281;24268;-80
2023/12/12 02:55:34;;;;;;;4.20;2.40;;;;;;;3.95;99.15;95578.60;107971;1281;22608;-80
2023/12/12 02:58:02;;;;;;;3.90;2.50;;;;;;;3.93;99.01;95578.16;108011;1277;22560;-80
2023/12/12 03:00:30;;;;;;;4.70;2.70;;;;;;;3.91;98.99;95583.30;107977;1281;24400;-80
2023/12/12 03:02:59;;;;;;;3.90;2.40;;;;;;;3.88;99.04;95585.71;108004;1275;22559;-80
2023/12/12 03:05:27;;;;;;;4.70;2.80;;;;;;;3.86;99.06;95585.88;108034;1274;24717;-80
2023/12/12 03:07:55;;;;;;;4.70;3.30;;;;;;;3.87;99.12;95585.04;107992;1281;22650;-81
2023/12/12 03:10:24;;;;;;;5.00;2.80;;;;;;;3.86;99.06;95580.69;107903;1281;158268;-80
2023/12/12 03:12:56;;;;;;;5.60;3.40;;;;;;;3.86;99.10;95583.77;108014;1275;22548;-80
2023/12/12 03:15:25;;;;;;;6.20;3.30;;;;;;;3.86;99.07;95586.40;107979;1281;22538;-80
2023/12/12 03:17:53;;;;;;;4.70;3.50;;;;;;;3.83;98.86;95588.76;107996;1281;25315;-80
2023/12/12 03:20:22;;;;;;;3.90;2.70;;;;;;;3.81;98.96;95594.77;108011;1276;22557;-80
2023/12/12 03:22:50;;;;;;;3.50;2.90;;;;;;;3.78;98.87;95598.69;108017;1281;22563;-80
2023/12/12 03:25:19;;;;;;;5.30;3.40;;;;;;;3.78;98.98;95601.63;107978;1274;22540;-80
2023/12/12 03:27:48;;;;;;;4.90;3.10;;;;;;;3.78;99.07;95600.73;108001;1281;22555;-80
2023/12/12 03:30:20;;;;;;;4.30;2.70;;;;;;;3.77;98.95;95601.52;108044;1281;25268;-80
2023/12/12 03:32:51;;;;;;;7.00;3.80;;;;;;;3.78;99.00;95599.95;108002;1281;25369;-80
2023/12/12 03:35:19;;;;;;;5.50;3.40;;;;;;;3.76;98.95;95606.04;107951;1281;22560;-80
2023/12/12 03:37:47;;;;;;;5.90;3.60;;;;;;;3.76;98.89;95606.23;108021;1274;22575;-80
2023/12/12 03:40:17;;;;;;;5.90;4.00;;;;;;;3.76;98.85;95605.66;107987;1274;24283;-80
2023/12/12 03:42:47;;;;;;;4.60;3.20;;;;;;;3.73;98.84;95607.92;108002;1274;22551;-80
2023/12/12 03:45:21;;;;;;;5.80;3.70;;;;;;;3.71;98.79;95607.39;108014;1281;22642;-80
2023/12/12 03:47:49;;;;;;;5.70;3.10;;;;;;;3.71;98.79;95606.97;108038;1281;22536;-80
2023/12/12 03:50:18;;;;;;;4.80;2.90;;;;;;;3.71;98.85;95608.66;108023;1281;23214;-80
2023/12/12 03:52:48;;;;;;;5.10;3.00;;;;;;;3.73;98.96;95606.03;108008;1281;22530;-80
2023/12/12 03:55:16;;;;;;;4.20;2.70;;;;;;;3.74;98.77;95610.23;107971;1274;22533;-80
2023/12/12 03:57:48;;;;;;;6.90;3.10;;;;;;;3.74;98.92;95612.84;108043;1281;22529;-80
2023/12/12 04:00:19;;;;;;;3.90;2.10;;;;;;;3.78;98.97;95611.48;108025;1281;22652;-81
2023/12/12 04:02:47;;;;;;;5.20;3.00;;;;;;;3.85;99.01;95610.35;108007;1281;22537;-80
2023/12/12 04:05:18;;;;;;;4.60;2.70;;;;;;;3.85;98.70;95611.83;107971;1280;23243;-80
2023/12/12 04:07:47;;;;;;;5.60;3.40;;;;;;;3.87;98.87;95612.03;107974;1281;25299;-80
2023/12/12 04:10:15;;;;;;;3.60;2.80;;;;;;;3.92;98.90;95616.85;108034;1281;22566;-80
2023/12/12 04:12:43;;;;;;;4.60;2.60;;;;;;;3.90;98.60;95625.83;107996;1275;22555;-80
2023/12/12 04:15:11;;;;;;;3.70;2.70;;;;;;;3.94;98.79;95628.77;108092;1274;22702;-80
2023/12/12 04:17:39;;;;;;;5.30;2.60;;;;;;;3.98;98.76;95631.30;107985;1281;22537;-80
2023/12/12 04:20:10;;;;;;;3.60;2.50;;;;;;;4.06;98.79;95629.36;108019;1281;22566;-80
2023/12/12 04:22:38;;;;;;;3.70;2.50;;;;;;;4.06;98.41;95629.46;108066;1275;22561;-80
2023/12/12 04:25:10;;;;;;;3.70;2.40;;;;;;;4.06;98.46;95633.08;107985;1274;22641;-80
2023/12/12 04:27:39;;;;;;;3.60;2.10;;;;;;;4.05;98.36;95636.80;108041;1279;22565;-80
2023/12/12 04:30:08;;;;;;;;;;;;;;;4.09;98.26;95635.89;108045;1274;22525;-80
2023/12/12 04:32:36;;;;;;;5.80;3.20;;;;;;;4.10;98.03;95631.48;108056;1282;22528;-80
2023/12/12 04:35:08;;;;;;;6.10;3.40;;;;;;;4.11;98.13;95635.84;107972;1281;22563;-80
2023/12/12 04:37:36;;;;;;;3.70;2.30;;;;;;;4.09;97.84;95641.60;108021;1280;22555;-80
2023/12/12 04:40:07;;;;;;;7.40;3.10;;;;;;;4.08;97.84;95646.30;107996;1281;22549;-81
2023/12/12 04:42:36;;;;;;;3.00;1.70;;;;;;;4.08;97.94;95648.20;108091;1281;23578;-80
2023/12/12 04:45:06;;;;;;;5.30;2.80;;;;;;;4.08;97.96;95645.70;108000;1281;22533;-80
2023/12/12 04:47:34;;;;;;;5.70;2.50;;;;;;;4.08;97.81;95650.69;108051;1281;22540;-80
2023/12/12 04:50:03;;;;;;;6.30;3.20;;;;;;;4.09;97.90;95650.52;107987;1281;22544;-80
2023/12/12 04:52:31;;;;;;;3.10;2.20;;;;;;;4.13;97.94;95650.63;108028;1281;25672;-80
2023/12/12 04:54:59;;;;;;;4.80;1.90;;;;;;;4.11;97.95;95653.88;107973;1281;22797;-80
2023/12/12 04:57:27;;;;;;;4.80;2.60;;;;;;;4.09;97.84;95651.05;108009;1281;24286;-80
2023/12/12 04:59:56;;;;;;;6.20;2.90;;;;;;;4.11;97.72;95660.95;107993;1281;22561;-80
2023/12/12 05:02:25;;;;;;;4.60;2.20;;;;;;;4.05;97.59;95659.94;107984;1281;22723;-80
2023/12/12 05:04:53;;;;;;;3.80;1.90;;;;;;;4.02;97.61;95656.63;107977;1280;22617;-81
2023/12/12 05:07:21;;;;;;;2.80;2.20;;;;;;;4.05;97.82;95654.59;107992;1281;22537;-80
2023/12/12 05:09:49;;;;;;;4.80;2.70;;;;;;;4.05;97.68;95663.77;107976;1281;22591;-81
2023/12/12 05:12:18;;;;;;;2.90;1.60;;;;;;;4.08;97.60;95663.21;107976;1281;22540;-80
2023/12/12 05:14:46;;;;;;;2.10;1.30;;;;;;;4.07;97.72;95666.29;107974;1281;24302;-80
2023/12/12 05:17:15;;;;;;;3.40;1.40;;;;;;;4.10;97.55;95668.41;107952;1281;23878;-81
2023/12/12 05:19:44;;;;;;;2.80;1.90;;;;;;;4.10;97.51;95668.36;108016;1275;22544;-80
2023/12/12 05:22:12;;;;;;;3.40;2.20;;;;;;;4.12;97.56;95667.73;107990;1281;22560;-80
2023/12/12 05:24:41;;;;;;;2.60;2.10;;;;;;;4.12;97.46;95671.98;107941;1281;22567;-80
2023/12/12 05:27:10;;;;;;;4.30;2.40;;;;;;;4.13;97.45;95683.26;107952;1281;25302;-80
2023/12/12 05:29:38;;;;;;;3.30;2.10;;;;;;;4.12;97.36;95686.09;107972;1281;22550;-80
2023/12/12 05:32:07;;;;;;;3.10;1.90;;;;;;;4.12;97.42;95686.52;107962;1281;22533;-80
2023/12/12 05:34:36;;;;;;;3.80;2.00;;;;;;;4.13;97.35;95695.21;108034;1277;22543;-80
2023/12/12 05:37:05;;;;;;;3.60;1.80;;;;;;;4.11;97.33;95696.90;107922;1267;22555;-80
2023/12/12 05:39:33;;;;;;;3.20;1.80;;;;;;;4.06;97.31;95697.08;107986;1275;26463;-80
2023/12/12 05:42:02;;;;;;;4.40;2.30;;;;;;;4.01;97.31;95703.48;107953;1282;22587;-80
2023/12/12 05:44:31;;;;;;;4.30;2.10;;;;;;;3.98;97.27;95706.30;107981;1278;22552;-80
2023/12/12 05:47:07;;;;;;;;;;;;;;;3.96;97.37;95709.86;107932;1281;22514;-80
2023/12/12 05:49:35;;;;;;;2.30;1.60;;;;;;;3.93;97.43;95709.94;107980;1281;22533;-80
2023/12/12 05:52:04;;;;;;;1.90;1.70;;;;;;;3.93;97.65;95717.86;107983;1281;25258;-80
2023/12/12 05:54:34;;;;;;;3.60;1.90;;;;;;;3.91;97.66;95724.15;107941;1275;22538;-80
2023/12/12 05:57:03;;;;;;;4.50;2.40;;;;;;;3.91;97.82;95719.38;107967;1278;25367;-80
2023/12/12 05:59:31;;;;;;;4.00;2.50;;;;;;;3.92;97.89;95722.73;107955;1281;22533;-80
2023/12/12 06:02:00;;;;;;;3.40;2.30;;;;;;;3.94;97.97;95733.02;107982;1281;22553;-81
2023/12/12 06:04:28;;;;;;;;;;;;;;;3.92;97.93;95734.06;107972;1281;22570;-81
2023/12/12 06:06:56;;;;;;;5.10;2.60;;;;;;;3.94;98.08;95733.40;107951;1274;22533;-81
2023/12/12 06:09:25;;;;;;;2.60;1.90;;;;;;;3.95;98.04;95738.08;107946;1281;22535;-80
2023/12/12 06:11:53;;;;;;;2.30;1.60;;;;;;;3.96;98.15;95740.96;107996;1281;24302;-80
2023/12/12 06:14:21;;;;;;;5.00;2.50;;;;;;;3.92;98.03;95746.86;107975;1281;22617;-81
2023/12/12 06:16:50;;;;;;;4.10;2.10;;;;;;;3.89;98.07;95746.64;107972;1281;22556;-80
2023/12/12 06:19:21;;;;;;;3.70;2.60;;;;;;;3.89;98.17;95751.77;107966;1277;25320;-81
2023/12/12 06:21:52;;;;;;;4.10;2.00;;;;;;;3.88;98.16;95751.94;107978;1259;22559;-80
2023/12/12 06:24:21;;;;;;;2.30;1.70;;;;;;;3.85;98.13;95757.44;107954;1281;22539;-81
2023/12/12 06:26:49;;;;;;;3.70;2.20;;;;;;;3.86;98.43;95757.12;107909;1280;22529;-81
2023/12/12 06:29:18;;;;;;;4.70;2.10;;;;;;;3.91;98.50;95763.95;107971;1280;22543;-80
2023/12/12 06:31:46;;;;;;;3.90;2.20;;;;;;;3.89;98.45;95765.25;107986;1281;22650;-80
2023/12/12 06:34:15;;;;;;;5.70;3.30;;;;;;;3.86;98.41;95772.27;107951;1281;24215;-80
2023/12/12 06:36:46;;;;;;;;;;;;;;;3.83;98.32;95774.53;108012;1274;22516;-80
2023/12/12 06:39:15;;;;;;;5.50;3.00;;;;;;;3.79;98.31;95779.26;108007;1281;22558;-80
2023/12/12 06:41:43;;;;;;;4.60;3.50;;;;;;;3.75;98.42;95779.24;107987;1281;22507;-80
2023/12/12 06:44:11;;;;;;;6.50;3.80;;;;;;;3.71;98.39;95784.11;107990;1274;22554;-81
2023/12/12 06:46:39;;;;;;;6.90;3.60;;;;;;;3.68;98.38;95789.65;107935;1281;22663;-81
2023/12/12 06:49:07;;;;;;;5.90;3.60;;;;;;;3.65;98.61;95790.73;108038;1281;22710;-81
2023/12/12 06:51:36;;;;;;;7.30;3.50;;;;;;;3.63;98.70;95794.33;107964;1280;22582;-81
2023/12/12 06:54:04;;;;;;;4.30;2.70;;;;;;;3.60;98.62;95800.65;107971;1281;22547;-80
2023/12/12 06:56:32;;;;;;;5.00;3.20;;;;;;;3.54;98.67;95809.81;107974;1281;22532;-80
2023/12/12 06:59:01;;;;;;;5.50;3.40;;;;;;;3.51;98.94;95810.93;107977;1274;22739;-81
2023/12/12 07:01:29;;;;;;;6.30;3.10;;;;;;;3.50;99.14;95809.66;108018;1281;22533;-81
2023/12/12 07:03:58;;;;;;;4.40;2.60;;;;;;;3.52;99.25;95814.36;108088;1281;22556;-83
2023/12/12 07:06:26;;;;;;;4.80;3.00;;;;;;;3.53;99.33;95819.30;108088;1281;22527;-81
2023/12/12 07:08:55;;;;;;;3.40;2.20;;;;;;;3.52;99.50;95820.55;108053;1281;22561;-81
2023/12/12 07:11:24;;;;;;;6.90;4.10;;;;;;;3.54;99.70;95820.81;107999;1274;22546;-81
2023/12/12 07:13:52;;;;;;;5.60;3.70;;;;;;;3.52;99.60;95825.87;107974;1274;22581;-81
2023/12/12 07:16:20;;;;;;;6.50;3.90;;;;;;;3.49;99.68;95831.88;107953;1281;22558;-81
2023/12/12 07:18:50;;;;;;;5.90;3.40;;;;;;;3.47;99.68;95835.73;107984;1281;22557;-81
2023/12/12 07:21:18;;;;;;;7.50;4.20;;;;;;;3.46;99.78;95838.58;107950;1271;22629;-81
2023/12/12 07:23:49;;;;;;;6.20;4.10;;;;;;;3.46;99.96;95840.19;107950;1274;25290;-81
2023/12/12 07:26:18;;;;;;;8.40;4.70;;;;;;;3.44;99.90;95841.02;107940;1281;22721;-81
2023/12/12 07:28:46;;;;;;;6.90;3.80;;;;;;;3.44;100.00;95838.92;108015;1281;25452;-81
2023/12/12 07:31:18;;;;;;;6.70;3.70;;;;;;;3.43;100.00;95841.27;107998;1281;22653;-81
2023/12/12 07:33:46;;;;;;;5.60;3.50;;;;;;;3.44;100.00;95843.02;107981;1277;22546;-81
2023/12/12 07:36:15;;;;;;;5.20;3.30;;;;;;;3.47;100.00;95846.12;107934;1275;22551;-81
2023/12/12 07:38:44;;;;;;;4.20;2.50;;;;;;;3.47;100.00;95850.41;107998;1281;22660;-82
2023/12/12 07:41:12;;;;;;;7.30;4.40;;;;;;;3.47;100.00;95859.44;107980;1274;24408;-81
2023/12/12 07:43:40;;;;;;;9.10;4.70;;;;;;;3.46;100.00;95856.39;107995;1281;22546;-81
2023/12/12 07:46:08;;;;;;;8.90;4.40;;;;;;;3.45;100.00;95861.05;107952;1281;22537;-81
2023/12/12 07:48:37;;;;;;;8.40;4.50;;;;;;;3.43;100.00;95858.88;107946;1281;22655;-81
2023/12/12 07:51:06;;;;;;;7.00;3.80;;;;;;;3.44;100.00;95861.25;107967;1281;22543;-81
2023/12/12 07:53:34;;;;;;;9.20;4.70;;;;;;;3.46;100.00;95860.58;107994;1260;22537;-81
2023/12/12 07:56:02;;;;;;;9.90;4.50;;;;;;;3.48;100.00;95863.20;107920;1281;22555;-81
2023/12/12 07:58:31;;;;;;;9.10;5.00;;;;;;;3.48;100.00;95861.42;108003;1281;22549;-81
2023/12/12 08:00:59;;;;;;;8.40;4.60;;;;;;;3.48;100.00;95867.02;107969;1282;22653;-81
2023/12/12 08:03:30;;;;;;;7.20;4.00;;;;;;;3.49;100.00;95875.22;107969;1281;22535;-81
2023/12/12 08:06:00;;;;;;;9.40;4.60;;;;;;;3.52;100.00;95878.24;107946;1281;22543;-81
2023/12/12 08:08:31;;;;;;;6.20;3.80;;;;;;;3.55;100.00;95879.20;108002;1281;22622;-81
2023/12/12 08:11:00;;;;;;;8.20;4.20;;;;;;;3.55;100.00;95882.09;107987;1281;22680;-81
2023/12/12 08:13:30;;;;;;;8.40;4.50;;;;;;;3.56;100.00;95888.13;108002;1281;22543;-81
2023/12/12 08:15:58;;;;;;;;;;;;;;;3.55;100.00;95893.25;108059;1282;22507;-81
2023/12/12 08:18:30;;;;;;;6.90;4.00;;;;;;;3.57;100.00;95898.55;107971;1274;22549;-81
2023/12/12 08:20:59;;;;;;;6.70;4.00;;;;;;;3.60;100.00;95902.71;107968;1281;22536;-81
2023/12/12 08:23:27;;;;;;;7.00;3.80;;;;;;;3.62;100.00;95903.77;107989;1281;22537;-80
2023/12/12 08:25:55;;;;;;;7.50;4.30;;;;;;;3.63;100.00;95911.21;107939;1281;22682;-80
2023/12/12 08:28:29;;;;;;;6.80;3.80;;;;;;;3.64;100.00;95909.17;108010;1281;22542;-81
2023/12/12 08:30:58;;;;;;;7.10;4.50;;;;;;;3.68;100.00;95915.15;108045;1281;22556;-81
2023/12/12 08:33:29;;;;;;;8.00;3.30;;;;;;;3.72;100.00;95918.27;107990;1275;25379;-81
2023/12/12 08:35:57;;;;;;;6.80;2.70;;;;;;;3.79;100.00;95924.20;107910;1274;22552;-81
2023/12/12 08:38:26;;;;;;;4.90;3.20;;;;;;;3.84;100.00;95929.10;108017;1274;22512;-81
2023/12/12 08:40:55;;;;;;;6.40;3.60;;;;;;;3.85;100.00;95931.69;107993;1277;22552;-81
2023/12/12 08:43:24;;;;;;;7.40;2.90;;;;;;;3.87;100.00;95936.62;108007;1275;22537;-80
2023/12/12 08:45:54;;;;;;;5.00;3.50;;;;;;;3.90;100.00;95940.61;107961;1281;25511;-80
2023/12/12 08:48:23;;;;;;;7.10;3.80;;;;;;;3.89;100.00;95942.61;108031;1275;23135;-81
2023/12/12 08:50:59;;;;;;;6.10;3.70;;;;;;;3.85;100.00;95943.90;107976;1274;22544;-81
2023/12/12 08:53:27;;;;;;;7.00;3.60;;;;;;;3.85;100.00;95945.00;107997;1274;22573;-80
2023/12/12 08:55:56;;;;;;;4.80;3.40;;;;;;;3.85;100.00;95943.11;107972;1281;24617;-81
2023/12/12 08:58:27;;;;;;;5.20;3.40;;;;;;;3.85;100.00;95942.17;107982;1281;25413;-81
2023/12/12 09:00:55;;;;;;;6.70;3.60;;;;;;;3.85;100.00;95941.80;108001;1281;25429;-81
2023/12/12 09:03:24;;;;;;;6.20;3.60;;;;;;;3.85;100.00;95944.95;108034;1274;25399;-81
2023/12/12 09:05:53;;;;;;;5.70;3.60;;;;;;;3.88;100.00;95945.02;107976;1281;22656;-81
2023/12/12 09:08:23;;;;;;;4.10;2.70;;;;;;;3.93;100.00;95950.45;107999;1281;23705;-81
2023/12/12 09:10:54;;;;;;;6.00;3.90;;;;;;;3.96;100.00;95947.49;107989;1281;22538;-81
2023/12/12 09:13:22;;;;;;;6.50;3.20;;;;;;;4.00;100.00;95947.77;107977;1280;22660;-81
2023/12/12 09:15:50;;;;;;;5.80;3.30;;;;;;;4.07;100.00;95949.71;107949;1281;22555;-81
2023/12/12 09:18:21;;;;;;;4.40;2.60;;;;;;;4.15;100.00;95943.77;107999;1279;22559;-81
2023/12/12 09:20:49;;;;;;;4.60;3.10;;;;;;;4.15;100.00;95938.79;108043;1274;22536;-81
2023/12/12 09:23:18;;;;;;;4.90;2.70;;;;;;;4.15;100.00;95937.02;107975;1274;25263;-80
2023/12/12 09:25:47;;;;;;;6.20;2.90;;;;;;;4.15;99.99;95935.96;107974;1282;22671;-80
2023/12/12 09:28:17;;;;;;;4.00;2.20;;;;;;;4.21;100.00;95940.75;107969;1281;22547;-81
2023/12/12 09:30:46;;;;;;;4.40;2.90;;;;;;;4.24;100.00;95938.39;107962;1282;22537;-81
2023/12/12 09:33:14;;;;;;;4.40;2.80;;;;;;;4.25;99.93;95940.05;107989;1275;24394;-81
2023/12/12 09:35:43;;;;;;;4.20;3.40;;;;;;;4.23;99.98;95936.53;107914;1281;28273;-81
2023/12/12 09:38:11;;;;;;;3.30;2.40;;;;;;;4.21;99.86;95938.29;108018;1281;22533;-80
2023/12/12 09:40:40;;;;;;;4.40;2.70;;;;;;;4.21;99.90;95938.88;108004;1282;22550;-80
2023/12/12 09:43:11;;;;;;;3.60;2.50;;;;;;;4.25;99.89;95944.89;107952;1281;22635;-81
2023/12/12 09:45:42;;;;;;;3.60;2.20;;;;;;;4.26;99.77;95949.77;107969;1282;22604;-80
2023/12/12 09:48:12;;;;;;;3.30;2.20;;;;;;;4.28;99.84;95945.16;107981;1281;25620;-81
2023/12/12 09:50:49;;;;;;;2.60;1.20;;;;;;;4.29;99.84;95942.96;107972;1281;22572;-80
2023/12/12 09:53:18;;;;;;;3.20;2.20;;;;;;;4.27;99.63;95947.58;107992;1274;22655;-81
2023/12/12 09:55:47;;;;;;;3.60;2.20;;;;;;;4.25;99.75;95947.52;108091;1281;25390;-80
2023/12/12 09:58:16;;;;;;;3.00;2.30;;;;;;;4.28;99.64;95943.64;107938;1274;22556;-81
2023/12/12 10:00:44;;;;;;;4.10;2.20;;;;;;;4.34;99.62;95939.36;107989;1281;22552;-81
2023/12/12 10:03:15;;;;;;;3.90;2.40;;;;;;;4.41;99.54;95940.14;107999;1281;24809;-81
2023/12/12 10:05:52;;;;;;;3.40;2.40;;;;;;;4.45;99.43;95938.11;108021;1281;25498;-80
2023/12/12 10:08:21;;;;;;;5.00;2.80;;;;;;;4.46;99.07;95939.42;107985;1282;25382;-81
2023/12/12 10:10:52;;;;;;;4.60;2.50;;;;;;;4.46;99.08;95933.55;107979;1281;22537;-80
2023/12/12 10:13:21;;;;;;;4.40;2.10;;;;;;;4.47;98.96;95934.28;107973;1281;22521;-81
2023/12/12 10:15:49;;;;;;;4.50;2.30;;;;;;;4.50;99.09;95931.41;107949;1281;25049;-80
2023/12/12 10:18:19;;;;;;;2.70;1.90;;;;;;;4.49;98.88;95932.50;108007;1281;24308;-80
2023/12/12 10:20:49;;;;;;;3.40;1.90;;;;;;;4.49;98.76;95924.54;107963;1281;22661;-80
2023/12/12 10:23:18;;;;;;;3.10;2.00;;;;;;;4.53;98.46;95925.92;107974;1281;22539;-80
2023/12/12 10:25:49;;;;;;;3.90;2.10;;;;;;;4.55;98.46;95923.05;107956;1279;22560;-80
2023/12/12 10:28:20;;;;;;;4.70;2.10;;;;;;;4.53;98.17;95926.61;107981;1281;22563;-80
2023/12/12 10:30:56;;;;;;;6.40;3.00;;;;;;;4.48;97.86;95922.52;107994;1280;22554;-81
2023/12/12 10:33:30;;;;;;;4.50;2.70;;;;;;;4.45;98.08;95929.72;107992;1281;25332;-80
2023/12/12 10:36:03;;;;;;;6.60;3.20;;;;;;;4.46;98.07;95929.71;107940;1281;22881;-80
2023/12/12 10:38:31;;;;;;;7.10;2.70;;;;;;;4.50;98.25;95932.36;108050;1281;22546;-80
2023/12/12 10:41:20;;;;;;;6.00;3.00;;;;;;;4.53;98.27;95932.38;107960;1282;22572;-80
2023/12/12 10:43:49;;;;;;;6.20;3.10;;;;;;;4.55;98.35;95934.95;107975;1281;23090;-80
2023/12/12 10:46:19;;;;;;;5.30;2.70;;;;;;;4.57;98.37;95935.44;107935;1281;22530;-80
2023/12/12 10:48:52;;;;;;;5.30;2.60;;;;;;;4.58;98.26;95933.97;107993;1278;22961;-81
2023/12/12 10:51:25;;;;;;;4.60;2.60;;;;;;;4.60;98.33;95939.75;107992;1281;22569;-80
2023/12/12 10:53:55;;;;;;;4.50;2.60;;;;;;;4.65;98.36;95940.45;108003;1281;22528;-80
2023/12/12 10:56:25;;;;;;;6.40;3.10;;;;;;;4.66;98.03;95940.32;107951;1282;22533;-81
2023/12/12 10:58:54;;;;;;;5.70;3.00;;;;;;;4.67;98.09;95942.27;107998;1281;22536;-80
2023/12/12 11:01:23;;;;;;;;;;;;;;;4.73;98.21;95941.32;107978;1282;22521;-80
2023/12/12 11:03:53;;;;;;;5.90;3.40;;;;;;;4.84;98.18;95938.64;108060;1281;22717;-80
2023/12/12 11:06:26;;;;;;;5.60;3.20;;;;;;;4.88;98.15;95937.86;107983;1281;24285;-81
2023/12/12 11:08:54;;;;;;;7.20;3.00;;;;;;;4.94;97.98;95936.47;108015;1274;22675;-80
2023/12/12 11:11:23;;;;;;;5.80;3.40;;;;;;;5.00;97.72;95935.64;107981;1281;22559;-80
2023/12/12 11:13:54;;;;;;;5.30;2.10;;;;;;;5.02;97.64;95937.11;107997;1282;22543;-80
2023/12/12 11:16:22;;;;;;;5.90;3.60;;;;;;;5.02;97.06;95935.42;107970;1281;24372;-80
2023/12/12 11:18:52;;;;;;;5.60;3.00;;;;;;;5.01;96.78;95936.64;108024;1282;22547;-81
2023/12/12 11:21:44;;;;;;;5.90;3.30;;;;;;;4.98;96.59;95932.65;107968;1281;22630;-80
2023/12/12 11:24:15;;;;;;;5.30;3.50;;;;;;;4.97;96.33;95930.96;108004;1281;22551;-80
2023/12/12 11:26:46;;;;;;;5.30;3.10;;;;;;;4.98;96.36;95934.22;107912;1281;22541;-80
2023/12/12 11:29:16;;;;;;;6.60;2.20;;;;;;;4.98;95.67;95935.33;107998;1279;22581;-80
2023/12/12 11:32:01;;;;;;;6.50;3.70;;;;;;;4.99;95.49;95941.78;107978;1275;22586;-80
2023/12/12 11:34:37;;;;;;;4.90;2.80;;;;;;;5.03;95.73;95947.52;108007;1282;22536;-80
2023/12/12 11:37:06;;;;;;;5.00;3.00;;;;;;;5.05;95.37;95940.52;107983;1282;25504;-80
2023/12/12 11:39:45;;;;;;;5.50;3.00;;;;;;;5.07;95.18;95943.23;108016;1279;22546;-80
2023/12/12 11:42:20;;;;;;;3.40;2.40;;;;;;;5.05;94.92;95942.36;107975;1281;22615;-80